createdAt,value
2019-02-07T00:00:38.533Z,72.53
2019-02-07T00:03:10.374Z,72.16
2019-02-07T00:05:43.271Z,72.14
2019-02-07T00:08:15.095Z,72.34
2019-02-07T00:10:47.053Z,72.39
2019-02-07T00:13:18.975Z,72.41
2019-02-07T00:15:50.811Z,72.60
2019-02-07T00:18:22.616Z,72.79
2019-02-07T00:20:57.493Z,73.11
2019-02-07T00:23:29.350Z,73.32
2019-02-07T00:26:01.189Z,73.07
2019-02-07T00:28:34.311Z,73.07
2019-02-07T00:31:06.254Z,73.19
2019-02-07T00:33:38.524Z,73.28
2019-02-07T00:36:10.371Z,73.18
2019-02-07T00:38:42.200Z,73.11
2019-02-07T00:41:14.053Z,72.84
2019-02-07T00:43:45.947Z,72.62
2019-02-07T00:46:18.084Z,72.64
2019-02-07T00:48:49.931Z,72.81
2019-02-07T00:51:21.778Z,72.76
2019-02-07T00:53:54.887Z,72.74
2019-02-07T00:56:26.725Z,72.73
2019-02-07T00:58:58.540Z,72.40
2019-02-07T01:01:30.459Z,72.32
2019-02-07T01:04:02.287Z,72.49
2019-02-07T01:06:34.114Z,72.29
2019-02-07T01:09:08.707Z,72.26
2019-02-07T01:11:40.565Z,72.13
2019-02-07T01:14:12.405Z,72.26
2019-02-07T01:16:44.375Z,72.31
2019-02-07T01:19:16.197Z,72.26
2019-02-07T01:21:48.404Z,72.14
2019-02-07T01:24:20.228Z,71.88
2019-02-07T01:26:52.079Z,71.98
2019-02-07T01:29:23.917Z,72.08
2019-02-07T01:31:55.758Z,72.11
2019-02-07T01:34:27.868Z,72.09
2019-02-07T01:36:59.695Z,72.09
2019-02-07T01:39:31.548Z,72.18
2019-02-07T01:42:03.586Z,71.90
2019-02-07T01:44:35.432Z,71.96
2019-02-07T01:47:07.622Z,71.93
2019-02-07T01:49:39.453Z,71.94
2019-02-07T01:52:11.257Z,71.95
2019-02-07T01:54:43.105Z,71.76
2019-02-07T01:57:14.932Z,71.44
2019-02-07T01:59:50.295Z,71.64
2019-02-07T02:02:22.123Z,71.70
2019-02-07T02:04:53.991Z,72.02
2019-02-07T02:07:25.847Z,72.00
2019-02-07T02:09:57.681Z,71.99
2019-02-07T02:12:29.504Z,72.38
2019-02-07T02:15:01.392Z,72.36
2019-02-07T02:17:33.255Z,72.20
2019-02-07T02:20:06.692Z,72.47
2019-02-07T02:22:38.540Z,72.36
2019-02-07T02:25:11.292Z,72.17
2019-02-07T02:27:43.339Z,72.39
2019-02-07T02:30:30.479Z,72.31
2019-02-07T02:33:02.713Z,72.45
2019-02-07T02:35:34.530Z,72.34
2019-02-07T02:38:06.802Z,72.26
2019-02-07T02:40:38.758Z,72.43
2019-02-07T02:43:10.602Z,72.47
2019-02-07T02:45:42.808Z,72.41
2019-02-07T02:48:16.247Z,72.20
2019-02-07T02:50:48.084Z,72.38
2019-02-07T02:53:21.022Z,72.49
2019-02-07T02:55:58.473Z,72.49
2019-02-07T02:58:30.324Z,72.25
2019-02-07T03:01:20.982Z,72.17
2019-02-07T03:04:11.710Z,72.04
2019-02-07T03:07:05.561Z,72.36
2019-02-07T03:09:56.295Z,72.30
2019-02-07T03:13:05.517Z,72.39
2019-02-07T03:16:14.809Z,72.47
2019-02-07T03:19:12.101Z,72.24
2019-02-07T03:22:04.316Z,72.21
2019-02-07T03:25:04.312Z,72.12
2019-02-07T03:28:04.610Z,72.30
2019-02-07T03:31:10.769Z,72.21
2019-02-07T03:34:07.646Z,72.51
2019-02-07T03:36:55.426Z,72.41
2019-02-07T03:39:49.200Z,72.02
2019-02-07T03:42:39.931Z,72.30
2019-02-07T03:46:02.110Z,72.51
2019-02-07T03:48:33.453Z,72.50
2019-02-07T03:51:24.648Z,72.44
2019-02-07T03:54:07.463Z,71.84
2019-02-07T03:56:56.970Z,72.10
2019-02-07T03:59:59.645Z,71.92
2019-02-07T04:02:45.867Z,72.28
2019-02-07T04:05:35.334Z,72.21
2019-02-07T04:08:26.061Z,72.08
2019-02-07T04:11:19.198Z,72.49
2019-02-07T04:14:05.883Z,72.32
2019-02-07T04:16:56.581Z,72.59
2019-02-07T04:19:45.952Z,72.70
2019-02-07T04:22:45.768Z,72.58
2019-02-07T04:25:36.446Z,72.69
2019-02-07T04:28:29.921Z,72.56
2019-02-07T04:31:19.763Z,72.49
2019-02-07T04:34:19.778Z,72.52
2019-02-07T04:37:10.446Z,72.52
2019-02-07T04:40:01.149Z,72.69
2019-02-07T04:42:58.102Z,72.86
2019-02-07T04:45:51.605Z,72.64
2019-02-07T04:48:51.290Z,72.71
2019-02-07T04:51:31.574Z,72.70
2019-02-07T04:54:21.110Z,72.86
2019-02-07T04:57:17.251Z,72.82
2019-02-07T05:00:11.235Z,72.65
2019-02-07T05:03:01.922Z,72.54
2019-02-07T05:05:58.552Z,72.17
2019-02-07T05:08:44.305Z,72.73
2019-02-07T05:11:51.665Z,72.93
2019-02-07T05:14:38.903Z,72.65
2019-02-07T05:17:36.830Z,73.00
2019-02-07T05:20:34.471Z,73.22
2019-02-07T05:23:30.601Z,73.14
2019-02-07T05:26:15.060Z,73.22
2019-02-07T05:29:04.710Z,72.84
2019-02-07T05:31:55.414Z,72.78
2019-02-07T05:34:49.316Z,72.78
2019-02-07T05:37:40.021Z,72.80
2019-02-07T05:40:20.571Z,73.08
2019-02-07T05:43:20.667Z,73.02
2019-02-07T05:46:00.209Z,73.01
2019-02-07T05:49:06.075Z,72.81
2019-02-07T05:51:59.811Z,72.75
2019-02-07T05:54:53.538Z,72.63
2019-02-07T05:57:34.145Z,72.58
2019-02-07T06:00:27.760Z,72.30
2019-02-07T06:03:17.449Z,72.66
2019-02-07T06:06:17.495Z,73.06
2019-02-07T06:09:11.002Z,72.89
2019-02-07T06:12:00.424Z,72.59
2019-02-07T06:14:52.700Z,72.15
2019-02-07T06:17:42.423Z,72.33
2019-02-07T06:20:31.148Z,72.15
2019-02-07T06:23:20.575Z,72.33
2019-02-07T06:26:20.705Z,72.31
2019-02-07T06:29:07.887Z,72.42
2019-02-07T06:32:07.690Z,72.30
2019-02-07T06:34:57.301Z,72.28
2019-02-07T06:37:49.025Z,72.29
2019-02-07T06:40:47.441Z,72.25
2019-02-07T06:43:29.777Z,72.31
2019-02-07T06:46:20.472Z,72.08
2019-02-07T06:49:18.288Z,71.89
2019-02-07T06:52:07.910Z,72.31
2019-02-07T06:54:57.507Z,72.54
2019-02-07T06:57:56.588Z,72.02
2019-02-07T07:00:54.936Z,71.87
2019-02-07T07:03:44.298Z,72.10
2019-02-07T07:06:34.989Z,72.11
2019-02-07T07:09:32.240Z,70.88
2019-02-07T07:12:15.994Z,69.94
2019-02-07T07:15:03.751Z,70.91
2019-02-07T07:17:46.560Z,71.16
2019-02-07T07:20:41.261Z,71.71
2019-02-07T07:23:31.976Z,71.93
2019-02-07T07:26:21.673Z,70.54
2019-02-07T07:29:14.376Z,71.27
2019-02-07T07:32:07.396Z,71.38
2019-02-07T07:34:58.295Z,72.26
2019-02-07T07:37:46.108Z,72.52
2019-02-07T07:40:46.191Z,71.70
2019-02-07T07:43:42.759Z,71.51
2019-02-07T07:46:44.083Z,71.25
2019-02-07T07:49:29.452Z,70.85
2019-02-07T07:52:22.925Z,71.52
2019-02-07T07:55:09.207Z,72.13
2019-02-07T07:57:59.917Z,72.02
2019-02-07T08:00:59.747Z,71.88
2019-02-07T08:03:42.581Z,72.67
2019-02-07T08:06:51.843Z,72.36
2019-02-07T08:09:39.312Z,72.15
2019-02-07T08:12:29.235Z,71.29
2019-02-07T08:15:19.022Z,71.03
2019-02-07T08:18:12.662Z,71.14
2019-02-07T08:21:03.303Z,71.37
2019-02-07T08:23:53.280Z,72.02
2019-02-07T08:26:44.898Z,72.04
2019-02-07T08:29:47.737Z,71.86
2019-02-07T08:32:38.959Z,71.78
2019-02-07T08:35:30.944Z,69.49
2019-02-07T08:38:40.073Z,69.26
2019-02-07T08:41:30.797Z,70.05
2019-02-07T08:44:20.019Z,71.51
2019-02-07T08:47:21.641Z,70.67
2019-02-07T08:50:11.525Z,70.41
2019-02-07T08:53:14.315Z,70.53
2019-02-07T08:56:05.035Z,70.18
2019-02-07T08:58:56.011Z,69.01
2019-02-07T09:01:46.711Z,69.24
2019-02-07T09:04:38.152Z,69.47
2019-02-07T09:07:26.889Z,69.00
2019-02-07T09:10:15.253Z,69.02
2019-02-07T09:13:04.975Z,68.37
2019-02-07T09:16:14.863Z,68.67
2019-02-07T09:18:58.574Z,68.93
2019-02-07T09:21:47.218Z,69.06
2019-02-07T09:24:31.963Z,68.64
2019-02-07T09:27:21.493Z,69.31
2019-02-07T09:30:27.469Z,68.45
2019-02-07T09:33:27.099Z,68.94
2019-02-07T09:36:16.716Z,69.13
2019-02-07T09:39:15.357Z,69.41
2019-02-07T09:42:06.220Z,69.53
2019-02-07T09:45:06.272Z,70.09
2019-02-07T09:47:51.498Z,70.92
2019-02-07T09:50:42.270Z,70.25
2019-02-07T09:53:30.445Z,70.13
2019-02-07T09:56:28.701Z,69.24
2019-02-07T09:59:14.314Z,69.22
2019-02-07T10:01:52.971Z,68.84
2019-02-07T10:04:43.712Z,69.10
2019-02-07T10:07:23.077Z,69.06
2019-02-07T10:10:16.856Z,69.50
2019-02-07T10:13:14.732Z,69.38
2019-02-07T10:16:03.483Z,68.72
2019-02-07T10:19:10.572Z,68.48
2019-02-07T10:22:07.504Z,69.37
2019-02-07T10:24:57.063Z,68.67
2019-02-07T10:27:49.545Z,68.97
2019-02-07T10:30:44.223Z,68.70
2019-02-07T10:33:35.039Z,68.66
2019-02-07T10:36:31.680Z,69.61
2019-02-07T10:39:40.630Z,70.93
2019-02-07T10:42:37.784Z,70.65
2019-02-07T10:45:43.511Z,71.44
2019-02-07T10:48:43.976Z,71.16
2019-02-07T10:51:25.788Z,72.76
2019-02-07T10:54:15.440Z,73.20
2019-02-07T10:57:23.881Z,73.94
2019-02-07T11:00:18.097Z,73.88
2019-02-07T11:03:04.593Z,72.90
2019-02-07T11:06:03.653Z,71.64
2019-02-07T11:09:03.292Z,71.60
2019-02-07T11:11:48.144Z,73.84
2019-02-07T11:14:39.167Z,73.71
2019-02-07T11:17:24.788Z,73.65
2019-02-07T11:20:15.233Z,74.05
2019-02-07T11:23:13.648Z,73.63
2019-02-07T11:26:15.036Z,73.63
2019-02-07T11:29:14.862Z,74.29
2019-02-07T11:32:17.627Z,75.60
2019-02-07T11:34:59.243Z,76.07
2019-02-07T11:37:48.558Z,76.69
2019-02-07T11:40:58.970Z,76.95
2019-02-07T11:43:42.373Z,76.43
2019-02-07T11:46:49.104Z,76.75
2019-02-07T11:49:34.613Z,76.90
2019-02-07T11:52:22.755Z,77.13
2019-02-07T11:55:15.133Z,76.88
2019-02-07T11:58:15.611Z,76.77
2019-02-07T12:01:18.166Z,76.93
2019-02-07T12:04:11.363Z,77.34
2019-02-07T12:07:02.094Z,77.58
2019-02-07T12:09:56.817Z,77.74
2019-02-07T12:12:52.592Z,78.23
2019-02-07T12:15:44.824Z,78.60
2019-02-07T12:18:42.009Z,78.08
2019-02-07T12:21:32.765Z,78.01
2019-02-07T12:24:26.911Z,78.10
2019-02-07T12:27:20.148Z,78.58
2019-02-07T12:30:17.441Z,78.83
2019-02-07T12:33:13.846Z,79.04
2019-02-07T12:35:59.932Z,78.87
2019-02-07T12:38:57.023Z,78.83
2019-02-07T12:41:45.951Z,78.95
2019-02-07T12:44:32.175Z,79.01
2019-02-07T12:47:18.318Z,78.93
2019-02-07T12:50:14.229Z,78.82
2019-02-07T12:52:56.075Z,79.69
2019-02-07T12:55:52.298Z,80.13
2019-02-07T12:58:47.802Z,80.37
2019-02-07T13:01:44.717Z,80.37
2019-02-07T13:04:32.136Z,80.71
2019-02-07T13:07:37.774Z,80.31
2019-02-07T13:10:49.979Z,80.44
2019-02-07T13:13:35.663Z,80.45
2019-02-07T13:16:24.578Z,80.18
2019-02-07T13:19:14.011Z,80.13
2019-02-07T13:22:04.236Z,80.15
2019-02-07T13:24:55.769Z,80.24
2019-02-07T13:27:42.292Z,80.48
2019-02-07T13:30:36.135Z,80.51
2019-02-07T13:33:41.676Z,80.54
2019-02-07T13:36:37.862Z,80.25
2019-02-07T13:39:25.953Z,79.88
2019-02-07T13:42:15.482Z,79.84
2019-02-07T13:45:07.021Z,80.13
2019-02-07T13:48:06.315Z,80.00
2019-02-07T13:50:51.558Z,79.94
2019-02-07T13:53:51.100Z,80.31
2019-02-07T13:56:44.331Z,80.25
2019-02-07T13:59:33.795Z,80.11
2019-02-07T14:02:20.082Z,80.02
2019-02-07T14:05:10.507Z,79.96
2019-02-07T14:08:04.801Z,79.72
2019-02-07T14:10:58.244Z,79.96
2019-02-07T14:13:50.711Z,79.70
2019-02-07T14:16:40.415Z,79.78
2019-02-07T14:19:31.490Z,79.71
2019-02-07T14:22:17.842Z,79.61
2019-02-07T14:25:17.135Z,79.65
2019-02-07T14:28:06.023Z,80.05
2019-02-07T14:30:49.502Z,80.10
2019-02-07T14:33:47.015Z,80.00
2019-02-07T14:36:37.171Z,79.65
2019-02-07T14:39:29.716Z,79.48
2019-02-07T14:42:14.613Z,79.29
2019-02-07T14:45:03.683Z,79.19
2019-02-07T14:47:35.329Z,79.50
2019-02-07T14:50:14.937Z,79.51
2019-02-07T14:52:41.675Z,79.48
2019-02-07T14:55:15.199Z,79.25
2019-02-07T14:57:46.671Z,79.55
2019-02-07T15:00:22.508Z,79.76
2019-02-07T15:02:59.511Z,79.83
2019-02-07T15:05:34.362Z,79.69
2019-02-07T15:08:06.491Z,79.67
2019-02-07T15:10:38.129Z,79.88
2019-02-07T15:13:09.727Z,79.86
2019-02-07T15:15:44.007Z,79.68
2019-02-07T15:18:15.590Z,79.63
2019-02-07T15:20:47.466Z,79.88
2019-02-07T15:23:23.935Z,79.99
2019-02-07T15:25:55.479Z,80.08
2019-02-07T15:28:28.152Z,80.30
2019-02-07T15:31:01.328Z,80.35
2019-02-07T15:33:32.996Z,80.47
2019-02-07T15:36:06.287Z,80.48
2019-02-07T15:38:39.609Z,80.46
2019-02-07T15:41:18.861Z,80.37
2019-02-07T15:43:57.911Z,80.35
2019-02-07T15:46:36.537Z,80.46
2019-02-07T15:49:07.741Z,80.55
2019-02-07T15:51:40.045Z,80.63
2019-02-07T15:54:13.218Z,80.75
2019-02-07T15:56:46.455Z,80.85
2019-02-07T15:59:33.983Z,81.00
2019-02-07T16:02:18.176Z,80.82
2019-02-07T16:04:51.311Z,81.36
2019-02-07T16:07:22.927Z,81.53
2019-02-07T16:09:54.915Z,81.63
2019-02-07T16:12:29.481Z,81.58
2019-02-07T16:15:06.968Z,81.87
2019-02-07T16:17:38.743Z,81.94
2019-02-07T16:20:15.431Z,81.98
2019-02-07T16:22:50.176Z,81.82
2019-02-07T16:25:24.053Z,81.64
2019-02-07T16:27:57.513Z,81.48
2019-02-07T16:30:30.614Z,81.61
2019-02-07T16:33:05.240Z,81.46
2019-02-07T16:35:40.071Z,81.46
2019-02-07T16:38:15.580Z,81.38
2019-02-07T16:40:51.566Z,81.47
2019-02-07T16:43:21.981Z,81.31
2019-02-07T16:45:56.389Z,81.14
2019-02-07T16:48:27.974Z,81.16
2019-02-07T16:51:05.864Z,81.17
2019-02-07T16:53:46.151Z,81.59
2019-02-07T16:56:20.761Z,81.94
2019-02-07T16:58:52.397Z,81.87
2019-02-07T17:01:25.526Z,81.55
2019-02-07T17:03:58.026Z,81.58
2019-02-07T17:06:31.950Z,81.93
2019-02-07T17:09:09.138Z,82.82
2019-02-07T17:11:40.689Z,82.78
2019-02-07T17:14:14.013Z,82.58
2019-02-07T17:16:47.174Z,82.83
2019-02-07T17:19:19.847Z,82.59
2019-02-07T17:21:57.988Z,82.13
2019-02-07T17:24:34.915Z,82.17
2019-02-07T17:27:07.954Z,81.75
2019-02-07T17:29:39.591Z,81.42
2019-02-07T17:32:12.290Z,81.33
2019-02-07T17:34:43.862Z,81.08
2019-02-07T17:37:15.482Z,80.39
2019-02-07T17:39:51.039Z,80.14
2019-02-07T17:42:22.626Z,80.50
2019-02-07T17:44:55.487Z,80.56
2019-02-07T17:47:29.517Z,80.68
2019-02-07T17:50:03.937Z,80.53
2019-02-07T17:52:39.200Z,80.52
2019-02-07T17:55:15.023Z,80.69
2019-02-07T17:57:49.502Z,80.83
2019-02-07T18:00:44.187Z,80.70
2019-02-07T18:03:17.236Z,80.46
2019-02-07T18:05:51.398Z,80.61
2019-02-07T18:08:24.842Z,80.55
2019-02-07T18:11:07.393Z,80.88
2019-02-07T18:13:40.427Z,81.13
2019-02-07T18:16:15.279Z,80.92
2019-02-07T18:18:47.447Z,80.49
2019-02-07T18:21:19.009Z,80.19
2019-02-07T18:23:53.395Z,80.58
2019-02-07T18:26:24.964Z,80.98
2019-02-07T18:28:58.169Z,81.39
2019-02-07T18:31:29.737Z,81.43
2019-02-07T18:34:01.620Z,81.34
2019-02-07T18:36:35.912Z,81.17
2019-02-07T18:39:10.703Z,81.21
2019-02-07T18:41:42.381Z,81.15
2019-02-07T18:44:14.559Z,81.10
2019-02-07T18:46:50.468Z,81.09
2019-02-07T18:49:23.569Z,81.19
2019-02-07T18:51:55.215Z,81.06
2019-02-07T18:54:28.085Z,81.15
2019-02-07T18:57:05.729Z,81.04
2019-02-07T18:59:40.277Z,80.56
2019-02-07T19:02:14.807Z,80.34
2019-02-07T19:04:46.700Z,80.62
2019-02-07T19:07:18.850Z,80.59
2019-02-07T19:09:53.438Z,80.58
2019-02-07T19:12:25.292Z,80.44
2019-02-07T19:15:07.612Z,80.66
2019-02-07T19:17:39.243Z,80.62
2019-02-07T19:20:19.889Z,80.77
2019-02-07T19:22:52.873Z,80.79
2019-02-07T19:25:24.440Z,80.91
2019-02-07T19:28:05.299Z,80.75
2019-02-07T19:30:38.365Z,80.58
2019-02-07T19:33:09.967Z,80.07
2019-02-07T19:35:43.907Z,80.23
2019-02-07T19:38:17.030Z,80.36
2019-02-07T19:40:48.776Z,81.42
2019-02-07T19:43:20.775Z,81.48
2019-02-07T19:45:59.954Z,81.45
2019-02-07T19:48:33.559Z,81.77
2019-02-07T19:51:08.391Z,80.74
2019-02-07T19:53:40.025Z,81.00
2019-02-07T19:56:14.651Z,81.72
2019-02-07T19:58:49.009Z,82.38
2019-02-07T20:01:22.982Z,82.45
2019-02-07T20:03:54.948Z,82.31
2019-02-07T20:06:29.810Z,82.66
2019-02-07T20:09:06.096Z,83.81
2019-02-07T20:11:41.062Z,84.05
2019-02-07T20:14:14.876Z,84.13
2019-02-07T20:16:51.511Z,84.07
2019-02-07T20:19:23.119Z,84.11
2019-02-07T20:21:58.706Z,83.83
2019-02-07T20:24:30.821Z,83.50
2019-02-07T20:27:06.047Z,82.80
2019-02-07T20:29:40.092Z,82.84
2019-02-07T20:32:17.442Z,82.58
2019-02-07T20:34:52.547Z,82.33
2019-02-07T20:37:26.326Z,82.23
2019-02-07T20:39:58.192Z,82.02
2019-02-07T20:42:36.151Z,81.99
2019-02-07T20:45:11.049Z,81.94
2019-02-07T20:47:46.224Z,82.00
2019-02-07T20:50:22.040Z,81.94
2019-02-07T20:52:55.650Z,82.07
2019-02-07T20:55:28.243Z,82.38
2019-02-07T20:58:03.446Z,82.35
2019-02-07T21:00:37.127Z,82.91
2019-02-07T21:03:12.107Z,83.10
2019-02-07T21:05:51.968Z,83.13
2019-02-07T21:08:25.557Z,83.20
2019-02-07T21:10:57.517Z,83.10
2019-02-07T21:13:31.148Z,83.05
2019-02-07T21:16:04.147Z,83.17
2019-02-07T21:18:37.470Z,83.25
2019-02-07T21:21:11.152Z,82.94
2019-02-07T21:23:44.839Z,82.91
2019-02-07T21:26:21.503Z,82.54
2019-02-07T21:28:54.362Z,82.40
2019-02-07T21:31:28.013Z,82.30
2019-02-07T21:34:02.925Z,82.18
2019-02-07T21:36:35.968Z,82.03
2019-02-07T21:39:14.933Z,81.96
2019-02-07T21:41:48.635Z,82.04
2019-02-07T21:44:22.542Z,81.73
2019-02-07T21:47:00.121Z,81.74
2019-02-07T21:49:31.993Z,81.61
2019-02-07T21:52:03.888Z,81.12
2019-02-07T21:54:39.209Z,81.08
2019-02-07T21:57:13.772Z,81.22
2019-02-07T21:59:49.760Z,81.26
2019-02-07T22:02:23.853Z,81.19
2019-02-07T22:04:58.366Z,80.85
2019-02-07T22:07:37.197Z,80.89
2019-02-07T22:10:10.331Z,81.08
2019-02-07T22:12:44.616Z,81.21
2019-02-07T22:15:20.484Z,81.14
2019-02-07T22:17:54.913Z,80.95
2019-02-07T22:20:29.331Z,81.35
2019-02-07T22:23:03.544Z,81.44
2019-02-07T22:25:39.956Z,81.38
2019-02-07T22:28:14.082Z,81.27
2019-02-07T22:30:45.949Z,81.36
2019-02-07T22:33:21.044Z,81.30
2019-02-07T22:35:55.736Z,81.08
2019-02-07T22:38:27.708Z,80.93
2019-02-07T22:41:00.924Z,81.18
2019-02-07T22:43:32.773Z,81.02
2019-02-07T22:46:04.731Z,81.40
2019-02-07T22:48:39.428Z,81.53
2019-02-07T22:51:11.319Z,81.50
2019-02-07T22:53:46.193Z,81.49
2019-02-07T22:56:20.774Z,81.42
2019-02-07T22:58:53.799Z,81.09
2019-02-07T23:01:52.573Z,81.20
2019-02-07T23:04:27.880Z,81.45
2019-02-07T23:07:02.698Z,81.38
2019-02-07T23:09:34.534Z,81.01
2019-02-07T23:12:06.978Z,81.07
2019-02-07T23:14:38.867Z,81.13
2019-02-07T23:17:10.727Z,81.12
2019-02-07T23:19:42.551Z,81.18
2019-02-07T23:22:15.727Z,81.51
2019-02-07T23:24:47.587Z,81.70
2019-02-07T23:27:21.757Z,81.74
2019-02-07T23:29:56.536Z,81.71
2019-02-07T23:32:30.871Z,81.52
2019-02-07T23:35:02.898Z,81.40
2019-02-07T23:37:37.063Z,81.61
2019-02-07T23:40:14.969Z,81.55
2019-02-07T23:42:46.934Z,81.70
2019-02-07T23:45:22.598Z,81.85
2019-02-07T23:47:57.081Z,82.03
2019-02-07T23:50:32.014Z,81.89
2019-02-07T23:53:14.224Z,81.67
2019-02-07T23:55:42.007Z,81.63
2019-02-07T23:58:16.125Z,81.53
